Time;durP1;ratioP1;P1;durP2;ratioP2;P2;SDS_P1;SDS_P2;PMS_P1;PMS_P2;Temp;Humidity;BMP_temperature;BMP_pressure;BME280_temperature;BME280_humidity;BME280_pressure;Samples;Min_cycle;Max_cycle;Signal;HPM_P1;HPM_P2
2023/08/18 00:00:58;;;;;;;20.13;14.15;;;22.10;99.90;;;;;;4055220;29;20399;-57
2023/08/18 00:03:02;;;;;;;16.83;14.20;;;22.00;99.90;;;;;;4055091;29;20506;-57
2023/08/18 00:05:05;;;;;;;26.30;14.57;;;22.00;99.90;;;;;;4054615;29;20122;-57
2023/08/18 00:07:07;;;;;;;24.00;14.35;;;22.00;99.90;;;;;;4054856;29;20049;-58
2023/08/18 00:09:09;;;;;;;20.58;14.27;;;21.90;99.90;;;;;;4054009;29;20052;-58
2023/08/18 00:11:11;;;;;;;17.27;14.15;;;21.90;99.90;;;;;;4054716;29;20076;-57
2023/08/18 00:13:13;;;;;;;19.35;15.13;;;21.90;99.90;;;;;;4054897;29;20471;-57
2023/08/18 00:15:15;;;;;;;22.95;15.48;;;21.90;99.90;;;;;;4055905;29;20048;-57
2023/08/18 00:17:17;;;;;;;25.70;15.85;;;21.90;99.90;;;;;;4054344;29;20120;-57
2023/08/18 00:19:21;;;;;;;19.20;15.20;;;21.80;99.90;;;;;;4054144;29;20088;-58
2023/08/18 00:21:23;;;;;;;24.05;14.88;;;21.80;99.90;;;;;;4054493;29;20048;-57
2023/08/18 00:23:25;;;;;;;22.63;14.85;;;21.80;99.90;;;;;;4054621;29;20052;-57
2023/08/18 00:25:27;;;;;;;27.55;16.33;;;21.80;99.90;;;;;;4054210;29;20455;-59
2023/08/18 00:27:30;;;;;;;21.42;13.98;;;21.70;99.90;;;;;;4054685;29;20048;-58
2023/08/18 00:29:32;;;;;;;21.33;15.55;;;21.70;99.90;;;;;;4053909;29;20073;-57
2023/08/18 00:31:34;;;;;;;26.85;16.55;;;21.80;99.90;;;;;;4054128;29;20059;-57
2023/08/18 00:33:36;;;;;;;23.45;17.17;;;21.70;99.90;;;;;;4054354;29;20456;-57
2023/08/18 00:35:40;;;;;;;22.60;15.77;;;21.70;99.90;;;;;;4054311;29;20062;-57
2023/08/18 00:37:43;;;;;;;21.27;15.80;;;21.70;99.90;;;;;;4054491;29;20094;-57
2023/08/18 00:39:45;;;;;;;27.50;15.88;;;21.60;99.90;;;;;;4054102;29;20540;-57
2023/08/18 00:41:47;;;;;;;23.05;16.10;;;21.60;99.90;;;;;;4053885;29;20056;-57
2023/08/18 00:43:49;;;;;;;25.58;16.35;;;21.60;99.90;;;;;;4054282;29;20415;-57
2023/08/18 00:45:53;;;;;;;34.90;16.05;;;21.50;99.90;;;;;;4054050;29;20075;-58
2023/08/18 00:47:56;;;;;;;20.58;15.73;;;21.60;99.90;;;;;;4053470;29;20566;-59
2023/08/18 00:49:59;;;;;;;19.42;15.30;;;21.60;99.90;;;;;;4053820;29;20052;-57
2023/08/18 00:52:03;;;;;;;23.33;15.88;;;21.60;99.90;;;;;;4053864;29;20059;-57
2023/08/18 00:54:06;;;;;;;24.15;16.52;;;21.60;99.90;;;;;;4053913;29;20053;-56
2023/08/18 00:56:09;;;;;;;21.40;16.00;;;21.60;99.90;;;;;;4054000;29;20056;-57
2023/08/18 00:58:12;;;;;;;24.55;16.42;;;21.60;99.90;;;;;;4053499;29;20087;-57
2023/08/18 01:00:14;;;;;;;21.05;16.70;;;21.50;99.90;;;;;;4053503;29;20127;-57
2023/08/18 01:02:17;;;;;;;21.73;16.00;;;21.50;99.90;;;;;;4053876;29;20115;-57
2023/08/18 01:04:19;;;;;;;20.63;16.10;;;21.50;99.90;;;;;;4053839;29;20044;-57
2023/08/18 01:06:21;;;;;;;23.63;17.20;;;21.50;99.90;;;;;;4054007;29;20048;-57
2023/08/18 01:08:25;;;;;;;19.65;15.88;;;21.40;99.90;;;;;;4053037;29;20052;-58
2023/08/18 01:10:29;;;;;;;24.35;16.83;;;21.50;99.90;;;;;;4053741;29;20499;-57
2023/08/18 01:12:40;;;;;;;26.83;17.42;;;21.40;99.90;;;;;;4053564;29;20056;-57
2023/08/18 01:14:56;;;;;;;23.48;17.50;;;21.50;99.90;;;;;;4059219;29;20459;-57
2023/08/18 01:17:06;;;;;;;27.25;18.02;;;21.40;99.90;;;;;;4063572;29;20087;-57
2023/08/18 01:19:11;;;;;;;22.77;17.38;;;21.40;99.90;;;;;;4052878;29;20040;-57
2023/08/18 01:21:16;;;;;;;30.92;19.10;;;21.40;99.90;;;;;;4053797;29;20094;-56
2023/08/18 01:23:19;;;;;;;24.55;18.55;;;21.30;99.90;;;;;;4053686;29;20059;-56
2023/08/18 01:25:21;;;;;;;26.00;17.88;;;21.30;99.90;;;;;;4053498;29;20139;-57
2023/08/18 01:27:23;;;;;;;24.48;17.88;;;21.30;99.90;;;;;;4053770;29;20044;-57
2023/08/18 01:29:27;;;;;;;25.92;18.05;;;21.30;99.90;;;;;;4052604;29;20305;-57
2023/08/18 01:31:32;;;;;;;29.63;17.50;;;21.30;99.90;;;;;;4053508;29;20049;-57
2023/08/18 01:33:40;;;;;;;25.23;18.35;;;21.30;99.90;;;;;;4053726;29;20049;-57
2023/08/18 01:35:45;;;;;;;24.25;17.77;;;21.30;99.90;;;;;;4053727;29;20124;-57
2023/08/18 01:37:48;;;;;;;25.15;18.15;;;21.20;99.90;;;;;;4053564;29;20068;-57
2023/08/18 01:39:52;;;;;;;24.90;17.98;;;21.30;99.90;;;;;;4053012;29;20080;-58
2023/08/18 01:41:54;;;;;;;22.83;18.17;;;21.30;99.90;;;;;;4052307;29;20384;-58
2023/08/18 01:43:58;;;;;;;28.38;19.30;;;21.20;99.90;;;;;;4052850;29;20392;-56
2023/08/18 01:46:01;;;;;;;30.27;19.83;;;21.20;99.90;;;;;;4053450;29;20094;-57
2023/08/18 01:48:04;;;;;;;27.27;20.08;;;21.20;99.90;;;;;;4053240;29;20052;-57
2023/08/18 01:50:07;;;;;;;26.17;19.85;;;21.10;99.90;;;;;;4052674;29;20091;-57
2023/08/18 01:52:11;;;;;;;26.30;19.05;;;21.10;99.90;;;;;;4053386;29;20116;-58
2023/08/18 01:54:13;;;;;;;32.63;19.23;;;21.10;99.90;;;;;;4053000;29;20057;-58
2023/08/18 01:56:16;;;;;;;24.73;19.42;;;21.10;99.90;;;;;;4053621;29;20069;-58
2023/08/18 01:58:19;;;;;;;23.80;17.98;;;21.10;99.90;;;;;;4052639;29;20076;-57
2023/08/18 02:00:21;;;;;;;27.55;19.08;;;21.10;99.90;;;;;;4052588;29;20052;-57
2023/08/18 02:02:23;;;;;;;24.77;20.02;;;21.10;99.90;;;;;;4053369;29;20044;-57
2023/08/18 02:04:25;;;;;;;37.28;20.73;;;21.20;99.90;;;;;;4053022;29;20099;-57
2023/08/18 02:06:27;;;;;;;25.42;19.20;;;21.20;99.90;;;;;;4053333;29;20428;-57
2023/08/18 02:08:29;;;;;;;28.48;19.60;;;21.20;99.90;;;;;;4052568;29;20049;-57
2023/08/18 02:10:31;;;;;;;23.85;19.35;;;21.20;99.90;;;;;;4052610;29;20057;-56
2023/08/18 02:12:34;;;;;;;26.40;20.15;;;21.10;99.90;;;;;;4052353;29;20060;-57
2023/08/18 02:14:36;;;;;;;25.27;20.15;;;21.10;99.90;;;;;;4057595;29;20414;-56
2023/08/18 02:16:38;;;;;;;26.83;19.25;;;21.00;99.90;;;;;;4057329;29;20423;-57
2023/08/18 02:18:40;;;;;;;28.58;19.00;;;21.10;99.90;;;;;;4052510;29;20048;-57
2023/08/18 02:20:42;;;;;;;26.05;18.88;;;21.10;99.90;;;;;;4052943;29;20057;-58
2023/08/18 02:22:44;;;;;;;28.83;20.42;;;21.10;99.90;;;;;;4052800;29;20072;-56
2023/08/18 02:24:46;;;;;;;26.25;20.30;;;21.00;99.90;;;;;;4052608;29;20123;-57
2023/08/18 02:26:48;;;;;;;24.73;19.95;;;21.00;99.90;;;;;;4052672;29;20080;-57
2023/08/18 02:28:52;;;;;;;27.10;21.02;;;21.00;99.90;;;;;;4051919;29;20307;-57
2023/08/18 02:31:00;;;;;;;34.25;21.77;;;20.90;99.90;;;;;;4049467;29;20415;-57
2023/08/18 02:33:03;;;;;;;25.55;20.60;;;20.90;99.90;;;;;;4052651;29;20360;-57
2023/08/18 02:35:06;;;;;;;31.30;21.63;;;20.90;99.90;;;;;;4052504;29;20455;-56
2023/08/18 02:37:07;;;;;;;26.80;21.30;;;20.90;99.90;;;;;;4052907;29;20068;-57
2023/08/18 02:39:10;;;;;;;28.00;21.35;;;20.90;99.90;;;;;;4050649;29;20139;-57
2023/08/18 02:41:12;;;;;;;33.22;21.52;;;20.90;99.90;;;;;;4051962;29;20054;-57
2023/08/18 02:43:14;;;;;;;27.65;21.05;;;20.90;99.90;;;;;;4052621;29;20048;-57
2023/08/18 02:45:17;;;;;;;28.63;21.80;;;20.90;99.90;;;;;;4052497;29;20116;-57
2023/08/18 02:47:19;;;;;;;27.50;21.13;;;20.80;99.90;;;;;;4052378;29;20139;-57
2023/08/18 02:49:21;;;;;;;26.80;21.60;;;20.90;99.90;;;;;;4051755;29;20507;-57
2023/08/18 02:51:23;;;;;;;24.67;20.80;;;20.80;99.90;;;;;;4052427;29;20075;-57
2023/08/18 02:53:25;;;;;;;29.75;21.05;;;20.80;99.90;;;;;;4052548;29;20132;-57
2023/08/18 02:55:27;;;;;;;29.88;22.80;;;20.80;99.90;;;;;;4052552;29;20049;-57
2023/08/18 02:57:29;;;;;;;28.67;22.58;;;20.80;99.90;;;;;;4052305;29;20059;-57
2023/08/18 02:59:32;;;;;;;33.40;23.48;;;20.80;99.90;;;;;;4052065;29;20539;-57
2023/08/18 03:01:36;;;;;;;31.85;24.27;;;20.80;99.90;;;;;;4052235;29;20055;-56
2023/08/18 03:03:38;;;;;;;29.73;22.40;;;20.70;99.90;;;;;;4052528;29;20056;-57
2023/08/18 03:05:40;;;;;;;34.47;23.77;;;20.70;99.90;;;;;;4052399;29;20443;-57
2023/08/18 03:07:42;;;;;;;34.40;23.00;;;20.60;99.90;;;;;;4052236;29;20055;-56
2023/08/18 03:09:44;;;;;;;31.13;22.58;;;20.60;99.90;;;;;;4053040;29;20461;-57
2023/08/18 03:11:46;;;;;;;34.40;24.08;;;20.70;99.90;;;;;;4056909;29;20076;-56
2023/08/18 03:13:50;;;;;;;34.97;24.13;;;20.60;99.90;;;;;;4057650;29;20064;-57
2023/08/18 03:15:52;;;;;;;30.00;24.10;;;20.60;99.90;;;;;;4066686;29;20051;-57
2023/08/18 03:17:56;;;;;;;30.13;24.35;;;20.60;99.90;;;;;;4057643;29;20069;-57
2023/08/18 03:19:58;;;;;;;29.25;23.27;;;20.60;99.90;;;;;;4056902;29;20127;-58
2023/08/18 03:22:00;;;;;;;30.75;23.23;;;20.60;99.90;;;;;;4057361;29;20049;-57
2023/08/18 03:24:04;;;;;;;33.60;24.17;;;20.60;99.90;;;;;;4057353;29;20062;-56
2023/08/18 03:26:06;;;;;;;31.65;22.67;;;20.50;99.90;;;;;;4056830;29;20426;-56
2023/08/18 03:28:09;;;;;;;31.95;23.75;;;20.50;99.90;;;;;;4057343;29;20431;-57
2023/08/18 03:30:11;;;;;;;32.42;22.63;;;20.50;99.90;;;;;;4056683;29;20063;-57
2023/08/18 03:32:14;;;;;;;29.75;23.48;;;20.50;99.90;;;;;;4057421;29;20045;-56
2023/08/18 03:34:17;;;;;;;34.88;23.17;;;20.40;99.90;;;;;;4057454;29;20048;-56
2023/08/18 03:36:20;;;;;;;33.95;24.23;;;20.50;99.90;;;;;;4057279;29;20048;-56
2023/08/18 03:38:22;;;;;;;30.38;22.92;;;20.50;99.90;;;;;;4055868;29;20055;-57
2023/08/18 03:40:24;;;;;;;38.90;24.05;;;20.40;99.90;;;;;;4056772;29;20044;-56
2023/08/18 03:42:26;;;;;;;30.88;24.25;;;20.30;99.90;;;;;;4057035;29;20049;-57
2023/08/18 03:44:28;;;;;;;35.40;24.70;;;20.20;99.90;;;;;;4056090;29;20048;-57
2023/08/18 03:46:30;;;;;;;34.40;24.27;;;20.30;99.90;;;;;;4057348;29;20130;-57
2023/08/18 03:48:32;;;;;;;34.15;24.75;;;20.40;99.90;;;;;;4057115;29;20128;-57
2023/08/18 03:50:38;;;;;;;32.50;24.42;;;20.40;99.90;;;;;;4056670;29;20053;-57
2023/08/18 03:52:40;;;;;;;31.52;24.48;;;20.40;99.90;;;;;;4057222;29;20048;-57
2023/08/18 03:54:42;;;;;;;35.10;24.38;;;20.40;99.90;;;;;;4056787;29;20084;-57
2023/08/18 03:56:44;;;;;;;32.90;25.08;;;20.40;99.90;;;;;;4057196;29;20055;-57
2023/08/18 03:58:46;;;;;;;36.55;24.77;;;20.30;99.90;;;;;;4057260;29;20052;-57
2023/08/18 04:00:49;;;;;;;33.67;24.25;;;20.30;99.90;;;;;;4057079;29;20451;-57
2023/08/18 04:02:51;;;;;;;34.60;25.73;;;20.40;99.90;;;;;;4056996;29;20048;-57
2023/08/18 04:04:54;;;;;;;39.35;26.85;;;20.40;99.90;;;;;;4057159;29;20052;-57
2023/08/18 04:06:58;;;;;;;35.53;25.67;;;20.40;99.90;;;;;;4056905;29;20436;-57
2023/08/18 04:09:06;;;;;;;33.17;26.15;;;20.30;99.90;;;;;;4056248;29;20104;-57
2023/08/18 04:11:08;;;;;;;38.45;27.08;;;20.30;99.90;;;;;;4056860;29;20578;-61
2023/08/18 04:13:11;;;;;;;38.63;27.20;;;20.20;99.90;;;;;;4056979;29;20048;-62
2023/08/18 04:15:14;;;;;;;37.35;26.27;;;20.20;99.90;;;;;;4058235;29;20053;-58
2023/08/18 04:17:16;;;;;;;33.45;26.48;;;20.30;99.90;;;;;;4057348;29;20048;-60
2023/08/18 04:19:18;;;;;;;32.67;25.60;;;20.20;99.90;;;;;;4056392;29;20095;-57
2023/08/18 04:21:20;;;;;;;34.92;24.33;;;20.30;99.90;;;;;;4055340;29;20406;-57
2023/08/18 04:23:23;;;;;;;34.15;25.83;;;20.30;99.90;;;;;;4053738;29;20080;-58
2023/08/18 04:25:25;;;;;;;35.92;25.48;;;20.30;99.90;;;;;;4054732;29;20052;-57
2023/08/18 04:27:27;;;;;;;35.17;26.10;;;20.30;99.90;;;;;;4054527;29;20052;-57
2023/08/18 04:29:29;;;;;;;34.65;25.38;;;20.30;99.90;;;;;;4052348;29;20116;-57
2023/08/18 04:31:31;;;;;;;34.97;23.98;;;20.30;99.90;;;;;;4054528;29;20045;-57
2023/08/18 04:33:33;;;;;;;31.92;23.40;;;20.40;99.90;;;;;;4054214;29;20067;-58
2023/08/18 04:35:35;;;;;;;31.65;23.05;;;20.40;99.90;;;;;;4054427;29;20055;-57
2023/08/18 04:37:37;;;;;;;39.67;26.05;;;20.40;99.90;;;;;;4054273;29;20139;-57
2023/08/18 04:39:41;;;;;;;36.67;25.10;;;20.40;99.90;;;;;;4053525;29;20143;-57
2023/08/18 04:41:44;;;;;;;35.53;24.38;;;20.40;99.90;;;;;;4054248;29;20503;-57
2023/08/18 04:43:48;;;;;;;40.08;26.52;;;20.40;99.90;;;;;;4054012;29;20067;-57
2023/08/18 04:45:51;;;;;;;36.10;25.27;;;20.40;99.90;;;;;;4054386;29;20083;-57
2023/08/18 04:47:53;;;;;;;33.38;25.08;;;20.40;99.90;;;;;;4054214;29;20053;-57
2023/08/18 04:49:58;;;;;;;34.78;25.98;;;20.30;99.90;;;;;;4053260;29;20049;-57
2023/08/18 04:52:00;;;;;;;35.95;26.50;;;20.40;99.90;;;;;;4053925;29;20056;-57
2023/08/18 04:54:03;;;;;;;40.45;26.65;;;20.40;99.90;;;;;;4053902;29;20076;-57
2023/08/18 04:56:08;;;;;;;32.83;26.05;;;20.40;99.90;;;;;;4054164;29;20554;-57
2023/08/18 04:58:13;;;;;;;36.78;25.40;;;20.40;99.90;;;;;;4054298;29;20085;-57
2023/08/18 05:00:15;;;;;;;39.97;26.77;;;20.40;99.90;;;;;;4053345;29;20051;-56
2023/08/18 05:02:17;;;;;;;31.80;24.27;;;20.30;99.90;;;;;;4054108;29;20398;-56
2023/08/18 05:04:20;;;;;;;37.60;25.10;;;20.30;99.90;;;;;;4052619;29;20495;-56
2023/08/18 05:06:22;;;;;;;34.60;27.25;;;20.40;99.90;;;;;;4053699;29;20475;-56
2023/08/18 05:08:24;;;;;;;30.67;24.95;;;20.40;99.90;;;;;;4054095;29;20108;-57
2023/08/18 05:10:26;;;;;;;35.60;25.58;;;20.40;99.90;;;;;;4053207;29;20139;-56
2023/08/18 05:12:29;;;;;;;36.15;26.17;;;20.40;99.90;;;;;;4053851;29;20056;-57
2023/08/18 05:14:32;;;;;;;37.20;25.05;;;20.40;99.90;;;;;;4053686;29;20071;-57
2023/08/18 05:16:34;;;;;;;34.45;24.42;;;20.40;99.90;;;;;;4053895;29;20040;-57
2023/08/18 05:18:36;;;;;;;37.10;25.08;;;20.40;99.90;;;;;;4054068;29;20510;-57
2023/08/18 05:20:38;;;;;;;35.08;25.13;;;20.40;99.90;;;;;;4052710;29;20075;-57
2023/08/18 05:22:40;;;;;;;35.50;25.60;;;20.40;99.90;;;;;;4053617;29;20056;-57
2023/08/18 05:24:43;;;;;;;34.17;25.40;;;20.40;99.90;;;;;;4053822;29;20044;-58
2023/08/18 05:26:45;;;;;;;32.50;25.30;;;20.50;99.90;;;;;;4053752;29;20051;-56
2023/08/18 05:28:48;;;;;;;28.52;23.95;;;20.40;99.90;;;;;;4053859;29;20067;-57
2023/08/18 05:30:52;;;;;;;39.28;24.63;;;20.50;99.90;;;;;;4052938;29;20048;-58
2023/08/18 05:32:54;;;;;;;33.30;25.48;;;20.50;99.90;;;;;;4053692;29;20044;-60
2023/08/18 05:34:56;;;;;;;36.65;26.27;;;20.50;99.90;;;;;;4053777;29;20048;-59
2023/08/18 05:36:59;;;;;;;37.53;26.88;;;20.60;99.90;;;;;;4053076;29;20225;-59
2023/08/18 05:39:01;;;;;;;37.75;26.98;;;20.60;99.90;;;;;;4053473;29;20129;-58
2023/08/18 05:41:07;;;;;;;35.15;25.80;;;20.50;99.90;;;;;;4052848;29;20049;-59
2023/08/18 05:43:16;;;;;;;42.00;26.58;;;20.60;99.90;;;;;;4053575;29;20456;-59
2023/08/18 05:45:20;;;;;;;35.10;25.15;;;20.60;99.90;;;;;;4053544;29;20479;-59
2023/08/18 05:47:22;;;;;;;33.65;25.80;;;20.60;99.90;;;;;;4053415;29;20092;-60
2023/08/18 05:49:24;;;;;;;36.45;25.98;;;20.60;99.90;;;;;;4052997;29;20459;-59
2023/08/18 05:51:26;;;;;;;38.08;25.42;;;20.70;99.90;;;;;;4052752;29;20384;-60
2023/08/18 05:53:30;;;;;;;37.60;24.83;;;20.70;99.90;;;;;;4053251;29;20048;-59
2023/08/18 05:55:32;;;;;;;34.38;25.50;;;20.80;99.90;;;;;;4053416;29;20111;-59
2023/08/18 05:57:37;;;;;;;31.10;24.52;;;20.80;99.90;;;;;;4053073;29;20056;-60
2023/08/18 05:59:40;;;;;;;32.67;25.27;;;20.80;99.90;;;;;;4052824;29;20510;-59
2023/08/18 06:01:43;;;;;;;34.50;24.42;;;20.90;99.90;;;;;;4052932;29;20063;-59
2023/08/18 06:03:45;;;;;;;33.35;25.65;;;21.00;99.90;;;;;;4053199;29;20104;-59
2023/08/18 06:05:47;;;;;;;36.25;25.83;;;21.00;99.90;;;;;;4052679;29;20068;-59
2023/08/18 06:07:49;;;;;;;38.45;26.20;;;21.00;99.90;;;;;;4052939;29;20519;-60
2023/08/18 06:09:51;;;;;;;31.90;25.42;;;20.90;99.90;;;;;;4052420;29;20059;-59
2023/08/18 06:11:54;;;;;;;36.97;25.55;;;21.00;99.90;;;;;;4052586;29;20474;-59
2023/08/18 06:13:56;;;;;;;34.95;25.17;;;21.00;99.90;;;;;;4058367;29;20131;-58
2023/08/18 06:16:02;;;;;;;36.90;24.92;;;21.10;99.90;;;;;;4068299;29;20514;-58
2023/08/18 06:18:06;;;;;;;36.08;25.38;;;21.20;99.90;;;;;;4053781;29;20124;-60
2023/08/18 06:20:09;;;;;;;33.58;25.55;;;21.30;99.90;;;;;;4051794;29;20045;-59
2023/08/18 06:22:11;;;;;;;31.73;24.67;;;21.30;99.90;;;;;;4051391;29;20049;-60
2023/08/18 06:24:13;;;;;;;31.90;25.00;;;21.40;99.90;;;;;;4052656;29;20100;-59
2023/08/18 06:26:15;;;;;;;38.20;24.83;;;21.30;99.90;;;;;;4052775;29;20044;-59
2023/08/18 06:28:17;;;;;;;36.40;25.40;;;21.30;99.90;;;;;;4051368;29;20055;-60
2023/08/18 06:30:19;;;;;;;31.17;24.23;;;21.30;99.90;;;;;;4051955;29;20132;-59
2023/08/18 06:32:21;;;;;;;33.22;25.60;;;21.40;99.90;;;;;;4052533;29;20052;-59
2023/08/18 06:34:24;;;;;;;35.10;24.58;;;21.50;99.90;;;;;;4052535;29;20041;-59
2023/08/18 06:36:26;;;;;;;31.38;24.58;;;21.50;99.90;;;;;;4052666;29;20083;-60
2023/08/18 06:38:28;;;;;;;39.17;23.27;;;21.60;99.90;;;;;;4052408;29;20181;-59
2023/08/18 06:40:31;;;;;;;33.85;23.35;;;21.70;99.90;;;;;;4050802;29;20052;-58
2023/08/18 06:42:33;;;;;;;31.23;22.52;;;21.80;99.90;;;;;;4052628;29;20082;-59
2023/08/18 06:44:35;;;;;;;28.35;22.15;;;21.80;99.90;;;;;;4051900;29;20123;-59
2023/08/18 06:46:37;;;;;;;37.22;24.25;;;21.90;99.90;;;;;;4052795;29;20049;-59
2023/08/18 06:48:39;;;;;;;33.92;23.98;;;21.90;99.90;;;;;;4051909;29;20243;-59
2023/08/18 06:50:42;;;;;;;28.25;21.70;;;21.90;99.90;;;;;;4051853;29;20056;-59
2023/08/18 06:52:44;;;;;;;36.65;22.80;;;21.90;99.90;;;;;;4052377;29;20056;-59
2023/08/18 06:54:47;;;;;;;34.35;23.33;;;21.90;99.90;;;;;;4052427;29;20471;-59
2023/08/18 06:56:49;;;;;;;31.15;23.13;;;21.90;99.90;;;;;;4052468;29;20096;-59
2023/08/18 06:58:52;;;;;;;34.90;23.08;;;22.00;99.90;;;;;;4052603;29;20040;-59
2023/08/18 07:00:55;;;;;;;36.65;23.92;;;22.00;99.90;;;;;;4051771;29;20128;-59
2023/08/18 07:02:57;;;;;;;34.55;23.33;;;22.00;99.90;;;;;;4052030;29;20048;-59
2023/08/18 07:04:59;;;;;;;34.67;22.67;;;22.10;99.90;;;;;;4052811;29;20100;-59
2023/08/18 07:07:03;;;;;;;32.35;22.58;;;22.10;99.90;;;;;;4052543;29;20055;-59
2023/08/18 07:09:05;;;;;;;47.30;24.98;;;22.30;99.90;;;;;;4052257;29;20546;-60
2023/08/18 07:11:07;;;;;;;33.45;23.52;;;22.30;99.90;;;;;;4051700;29;20475;-60
2023/08/18 07:13:10;;;;;;;53.92;24.35;;;22.20;99.90;;;;;;4052308;29;20127;-60
2023/08/18 07:15:12;;;;;;;73.47;26.02;;;22.30;99.90;;;;;;4059990;29;20152;-59
2023/08/18 07:17:15;;;;;;;80.13;25.35;;;22.40;99.90;;;;;;4052302;29;20048;-60
2023/08/18 07:19:17;;;;;;;40.00;21.98;;;22.50;99.90;;;;;;4052206;29;20045;-59
2023/08/18 07:21:19;;;;;;;45.50;23.65;;;22.50;99.90;;;;;;4050363;29;20080;-59
2023/08/18 07:23:22;;;;;;;34.03;21.30;;;22.60;99.90;;;;;;4052484;29;20079;-59
2023/08/18 07:25:24;;;;;;;38.88;22.15;;;22.70;99.90;;;;;;4052214;29;20056;-59
2023/08/18 07:27:26;;;;;;;42.00;21.77;;;22.70;99.90;;;;;;4052184;29;20065;-59
2023/08/18 07:29:28;;;;;;;34.08;22.40;;;22.70;99.90;;;;;;4052013;29;20456;-60
2023/08/18 07:31:31;;;;;;;34.88;21.23;;;22.80;99.90;;;;;;4051554;29;20076;-59
2023/08/18 07:33:33;;;;;;;30.42;20.90;;;22.80;99.90;;;;;;4052382;29;20071;-59
2023/08/18 07:35:35;;;;;;;32.35;20.75;;;22.80;99.90;;;;;;4051299;29;20148;-59
2023/08/18 07:37:37;;;;;;;34.65;20.35;;;22.80;99.90;;;;;;4052117;29;20123;-59
2023/08/18 07:39:58;;;;;;;30.60;20.23;;;22.90;99.90;;;;;;4051559;29;20068;-59
2023/08/18 07:42:00;;;;;;;29.85;20.25;;;22.90;99.90;;;;;;4052155;29;20060;-58
2023/08/18 07:44:02;;;;;;;27.25;18.40;;;23.00;99.90;;;;;;4052219;29;20144;-58
2023/08/18 07:46:05;;;;;;;25.73;17.30;;;23.00;99.90;;;;;;4051614;29;20467;-61
2023/08/18 07:48:07;;;;;;;23.55;18.35;;;23.00;99.90;;;;;;4052324;29;20048;-59
2023/08/18 07:50:10;;;;;;;27.17;17.83;;;23.20;99.90;;;;;;4051436;29;20052;-59
2023/08/18 07:52:12;;;;;;;26.00;19.02;;;23.20;99.90;;;;;;4052233;29;20076;-59
2023/08/18 07:54:14;;;;;;;27.42;17.27;;;23.20;99.90;;;;;;4052124;29;20392;-59
2023/08/18 07:56:17;;;;;;;25.95;16.75;;;23.20;99.90;;;;;;4053072;29;20180;-59
2023/08/18 07:58:20;;;;;;;28.95;17.88;;;23.30;99.90;;;;;;4055200;29;20146;-58
2023/08/18 08:00:22;;;;;;;29.85;19.13;;;23.40;99.90;;;;;;4055197;29;20045;-60
2023/08/18 08:02:24;;;;;;;35.95;19.20;;;23.40;99.90;;;;;;4055974;29;20045;-59
2023/08/18 08:04:31;;;;;;;31.88;18.20;;;23.40;99.90;;;;;;4055491;29;20048;-59
2023/08/18 08:06:33;;;;;;;27.17;16.70;;;23.50;99.90;;;;;;4055034;29;20060;-58
2023/08/18 08:08:35;;;;;;;23.00;15.32;;;23.60;99.90;;;;;;4053688;29;20053;-59
2023/08/18 08:10:38;;;;;;;24.08;15.20;;;23.70;99.90;;;;;;4054142;29;20080;-58
2023/08/18 08:12:42;;;;;;;22.58;15.18;;;23.70;99.90;;;;;;4054515;29;20055;-58
2023/08/18 08:14:44;;;;;;;20.57;12.80;;;23.80;99.90;;;;;;4060102;29;20040;-59
2023/08/18 08:16:46;;;;;;;26.33;15.55;;;23.90;99.90;;;;;;4058020;29;20444;-59
2023/08/18 08:18:48;;;;;;;20.10;14.05;;;24.10;99.90;;;;;;4054681;29;20051;-59
2023/08/18 08:20:50;;;;;;;17.70;12.80;;;24.30;99.90;;;;;;4053772;29;20084;-59
2023/08/18 08:22:52;;;;;;;26.05;14.43;;;24.40;99.90;;;;;;4054474;29;20048;-59
2023/08/18 08:24:55;;;;;;;19.17;14.02;;;24.50;99.90;;;;;;4054649;29;20049;-59
2023/08/18 08:26:57;;;;;;;21.30;15.13;;;24.70;99.90;;;;;;4054614;29;20454;-59
2023/08/18 08:29:01;;;;;;;18.70;14.45;;;24.70;99.90;;;;;;4054555;29;20077;-59
2023/08/18 08:31:03;;;;;;;24.45;14.10;;;24.80;99.90;;;;;;4053735;29;20396;-59
2023/08/18 08:33:08;;;;;;;22.90;12.77;;;24.90;99.90;;;;;;4054239;29;20041;-60
2023/08/18 08:35:10;;;;;;;23.15;13.65;;;25.00;99.90;;;;;;4054455;29;20053;-60
2023/08/18 08:37:12;;;;;;;28.30;14.68;;;25.10;99.90;;;;;;4054028;29;20077;-60
2023/08/18 08:39:14;;;;;;;23.38;13.80;;;25.20;99.90;;;;;;4054390;29;20139;-59
2023/08/18 08:41:16;;;;;;;17.45;13.43;;;25.20;99.90;;;;;;4053594;29;20079;-59
2023/08/18 08:43:18;;;;;;;21.05;13.30;;;25.20;99.90;;;;;;4054209;29;20052;-59
2023/08/18 08:45:22;;;;;;;22.05;13.65;;;25.30;99.90;;;;;;4053945;29;20085;-59
2023/08/18 08:47:26;;;;;;;18.83;13.10;;;25.40;99.90;;;;;;4053914;29;20041;-59
2023/08/18 08:49:30;;;;;;;20.95;13.25;;;25.40;99.90;;;;;;4054151;29;20053;-59
2023/08/18 08:51:35;;;;;;;19.52;12.90;;;25.50;99.90;;;;;;4053183;29;20053;-59
2023/08/18 08:53:40;;;;;;;21.15;12.45;;;25.50;99.90;;;;;;4054180;29;20052;-59
2023/08/18 08:55:44;;;;;;;19.02;12.25;;;25.70;99.90;;;;;;4054433;29;20559;-59
2023/08/18 08:57:47;;;;;;;27.88;12.43;;;25.70;99.90;;;;;;4053866;29;20076;-59
2023/08/18 08:59:50;;;;;;;23.15;12.43;;;25.60;99.90;;;;;;4053447;29;20045;-60
2023/08/18 09:01:53;;;;;;;19.52;13.07;;;25.70;99.90;;;;;;4053816;29;20131;-60
2023/08/18 09:03:56;;;;;;;14.52;10.32;;;25.80;99.90;;;;;;4053899;29;20049;-60
2023/08/18 09:05:58;;;;;;;17.23;10.68;;;25.80;99.90;;;;;;4054138;29;20087;-59
2023/08/18 09:08:00;;;;;;;17.38;10.45;;;25.90;99.90;;;;;;4053366;29;20399;-60
2023/08/18 09:10:03;;;;;;;19.27;11.52;;;26.00;99.90;;;;;;4053276;29;20493;-60
2023/08/18 09:12:07;;;;;;;12.88;10.45;;;26.00;99.90;;;;;;4053511;29;20084;-60
2023/08/18 09:14:09;;;;;;;17.27;10.60;;;26.10;99.90;;;;;;4067240;29;20055;-59
2023/08/18 09:16:11;;;;;;;17.92;10.38;;;26.20;99.90;;;;;;4038438;29;20133;-59
2023/08/18 09:18:15;;;;;;;15.07;10.05;;;26.20;99.90;;;;;;4045639;29;20113;-60
2023/08/18 09:20:18;;;;;;;18.70;10.52;;;26.30;99.90;;;;;;4052895;29;20067;-60
2023/08/18 09:22:23;;;;;;;23.15;11.45;;;26.40;99.90;;;;;;4053604;29;20068;-60
2023/08/18 09:24:25;;;;;;;17.73;10.18;;;26.40;99.90;;;;;;4053457;29;20057;-59
2023/08/18 09:26:27;;;;;;;13.38;9.43;;;26.60;99.90;;;;;;4053666;29;20388;-57
2023/08/18 09:28:32;;;;;;;14.98;9.45;;;26.70;99.90;;;;;;4052975;29;20455;-58
2023/08/18 09:30:34;;;;;;;14.63;9.13;;;26.90;99.90;;;;;;4053025;29;20503;-57
2023/08/18 09:32:36;;;;;;;14.48;9.43;;;27.00;99.90;;;;;;4053546;29;20567;-57
2023/08/18 09:34:42;;;;;;;17.35;9.65;;;27.00;99.90;;;;;;4053353;29;20060;-56
2023/08/18 09:36:51;;;;;;;20.17;9.57;;;27.10;99.90;;;;;;4053226;29;20127;-58
2023/08/18 09:38:53;;;;;;;14.48;8.65;;;27.20;99.90;;;;;;4053182;29;20096;-58
2023/08/18 09:40:58;;;;;;;16.45;9.32;;;27.10;99.90;;;;;;4052496;29;20123;-57
2023/08/18 09:43:00;;;;;;;21.20;9.43;;;27.20;99.90;;;;;;4053467;29;20157;-57
2023/08/18 09:45:07;;;;;;;13.05;8.45;;;27.40;99.90;;;;;;4051771;29;20127;-58
2023/08/18 09:47:14;;;;;;;15.40;8.82;;;27.50;99.90;;;;;;4053227;29;20075;-58
2023/08/18 09:49:18;;;;;;;17.80;7.75;;;27.70;99.90;;;;;;4053102;29;20073;-58
2023/08/18 09:51:24;;;;;;;12.82;7.32;;;27.80;99.90;;;;;;4052522;29;20148;-60
2023/08/18 09:53:30;;;;;;;18.13;8.35;;;27.90;99.90;;;;;;4053120;29;20131;-60
2023/08/18 09:55:34;;;;;;;13.23;7.45;;;28.00;99.90;;;;;;4051850;29;20432;-61
2023/08/18 09:57:40;;;;;;;10.98;7.45;;;28.00;99.80;;;;;;4052806;29;20072;-60
2023/08/18 09:59:48;;;;;;;34.10;7.55;;;28.00;99.80;;;;;;4052601;29;20135;-61
2023/08/18 10:01:52;;;;;;;11.27;7.38;;;28.10;99.80;;;;;;4052263;29;20056;-60
2023/08/18 10:03:54;;;;;;;10.30;7.30;;;28.30;99.70;;;;;;4051520;29;20055;-58
2023/08/18 10:05:58;;;;;;;8.20;7.00;;;28.40;99.50;;;;;;4052871;29;20055;-58
2023/08/18 10:08:02;;;;;;;13.55;6.80;;;28.30;99.40;;;;;;4052741;29;20480;-58
2023/08/18 10:10:06;;;;;;;11.45;5.53;;;28.40;99.50;;;;;;4052208;29;20487;-58
2023/08/18 10:12:11;;;;;;;11.15;5.72;;;28.40;98.90;;;;;;4052213;29;20151;-58
2023/08/18 10:14:13;;;;;;;11.13;5.47;;;28.50;98.90;;;;;;4053898;29;20455;-58
2023/08/18 10:16:16;;;;;;;12.35;5.35;;;28.50;98.90;;;;;;4052855;29;20133;-58
2023/08/18 10:18:19;;;;;;;6.70;5.10;;;28.50;98.80;;;;;;4052908;29;20128;-58
2023/08/18 10:20:25;;;;;;;7.88;5.68;;;28.40;99.10;;;;;;4051221;29;20129;-58
2023/08/18 10:22:30;;;;;;;12.90;6.03;;;28.30;98.60;;;;;;4052532;29;20068;-57
2023/08/18 10:24:37;;;;;;;9.18;5.57;;;28.30;98.70;;;;;;4052667;29;20112;-60